createdAt,value
2023-01-11T00:00:53.802Z,0.50
2023-01-11T00:01:53.785Z,0.52
2023-01-11T00:02:53.696Z,0.51
2023-01-11T00:03:53.660Z,0.51
2023-01-11T00:54:40.974Z,0.50
2023-01-11T00:55:41.840Z,0.50
2023-01-11T00:56:41.825Z,0.50
2023-01-11T00:57:41.818Z,0.50
2023-01-11T00:58:41.795Z,0.50
2023-01-11T00:59:41.778Z,0.50
2023-01-11T01:00:41.771Z,0.42
2023-01-11T01:01:41.832Z,0.38
2023-01-11T01:02:41.881Z,0.38
2023-01-11T01:03:41.732Z,0.39
2023-01-11T01:04:41.736Z,0.42
2023-01-11T01:05:41.710Z,0.46
2023-01-11T01:06:41.712Z,0.50
2023-01-11T01:07:41.693Z,0.50
2023-01-11T01:08:41.684Z,0.50
2023-01-11T01:09:41.672Z,0.50
2023-01-11T01:10:41.686Z,0.50
2023-01-11T01:11:41.646Z,0.50
2023-01-11T01:12:41.656Z,0.50
2023-01-11T01:13:41.636Z,0.51
2023-01-11T01:14:41.627Z,0.50
2023-01-11T01:15:41.669Z,0.50
2023-01-11T02:16:41.000Z,0.51
2023-01-11T02:18:40.985Z,0.51
2023-01-11T02:19:40.976Z,0.50
2023-01-11T02:26:40.905Z,0.51
2023-01-11T02:27:40.901Z,0.51
2023-01-11T02:28:40.882Z,0.50
2023-01-11T02:29:40.859Z,0.51
2023-01-11T02:30:40.882Z,0.51
2023-01-11T02:31:40.900Z,0.51
2023-01-11T02:32:40.817Z,0.51
2023-01-11T02:33:40.813Z,0.51
2023-01-11T02:34:40.800Z,0.51
2023-01-11T02:35:40.782Z,0.51
2023-01-11T02:36:40.772Z,0.50
2023-01-11T02:37:40.756Z,0.51
2023-01-11T02:38:40.753Z,0.51
2023-01-11T02:39:40.730Z,0.51
2023-01-11T02:40:40.718Z,0.52
2023-01-11T02:41:40.699Z,0.51
2023-01-11T02:42:40.682Z,0.51
2023-01-11T02:43:40.680Z,0.51
2023-01-11T02:44:40.659Z,0.50
2023-01-11T02:45:40.656Z,0.51
2023-01-11T02:46:40.668Z,0.52
2023-01-11T02:47:40.628Z,0.51
2023-01-11T02:48:40.607Z,0.51
2023-01-11T02:50:40.592Z,0.51
2023-01-11T02:51:40.582Z,0.51
2023-01-11T02:52:40.569Z,0.52
2023-01-11T02:53:40.556Z,0.51
2023-01-11T02:54:40.555Z,0.51
2023-01-11T02:55:40.529Z,0.51
2023-01-11T02:56:40.525Z,0.51
2023-01-11T02:57:40.504Z,0.51
2023-01-11T02:58:40.515Z,0.51
2023-01-11T02:59:40.486Z,0.52
2023-01-11T03:00:40.483Z,0.52
2023-01-11T03:01:40.505Z,0.52
2023-01-11T03:02:40.514Z,0.51
2023-01-11T03:03:40.438Z,0.51
2023-01-11T03:04:40.446Z,0.51
2023-01-11T03:05:40.415Z,0.52
2023-01-11T03:06:40.437Z,0.52
2023-01-11T03:07:40.393Z,0.51
2023-01-11T03:08:40.386Z,0.51
2023-01-11T03:09:40.378Z,0.52
2023-01-11T03:10:40.364Z,0.51
2023-01-11T03:11:40.342Z,0.52
2023-01-11T03:12:40.344Z,0.51
2023-01-11T03:13:40.314Z,0.50
2023-01-11T03:14:40.316Z,0.50
2023-01-11T03:16:40.282Z,0.51
2023-01-11T03:17:40.274Z,0.51
2023-01-11T03:18:40.287Z,0.51
2023-01-11T03:19:40.258Z,0.51
2023-01-11T03:20:40.264Z,0.50
2023-01-11T03:21:40.234Z,0.51
2023-01-11T03:22:40.226Z,0.51
2023-01-11T03:23:40.215Z,0.51
2023-01-11T03:24:40.251Z,0.51
2023-01-11T03:25:40.196Z,0.51
2023-01-11T03:26:40.188Z,0.51
2023-01-11T03:27:40.177Z,0.51
2023-01-11T03:28:40.164Z,0.51
2023-01-11T03:29:40.157Z,0.51
2023-01-11T03:30:40.152Z,0.51
2023-01-11T03:31:40.198Z,0.51
2023-01-11T03:32:40.129Z,0.51
2023-01-11T03:33:40.116Z,0.51
2023-01-11T03:34:40.187Z,0.51
2023-01-11T03:35:40.124Z,0.51
2023-01-11T03:36:40.096Z,0.51
2023-01-11T03:37:40.078Z,0.51
2023-01-11T03:38:40.075Z,0.51
2023-01-11T03:40:40.053Z,0.51
2023-01-11T03:41:40.046Z,0.50
2023-01-11T03:42:40.034Z,0.51
2023-01-11T03:43:40.032Z,0.50
2023-01-11T03:44:40.013Z,0.51
2023-01-11T03:45:40.026Z,0.51
2023-01-11T03:46:40.087Z,0.52
2023-01-11T03:47:40.002Z,0.51
2023-01-11T03:48:39.979Z,0.51
2023-01-11T03:49:39.987Z,0.51
2023-01-11T03:50:39.993Z,0.52
2023-01-11T03:51:39.964Z,0.51
2023-01-11T03:52:39.955Z,0.51
2023-01-11T03:53:39.946Z,0.51
2023-01-11T03:54:39.959Z,0.50
2023-01-11T03:55:39.921Z,0.51
2023-01-11T03:56:39.903Z,0.51
2023-01-11T03:57:39.893Z,0.51
2023-01-11T03:58:39.917Z,0.50
2023-01-11T03:59:39.862Z,0.51
2023-01-11T04:00:39.922Z,0.51
2023-01-11T04:01:39.829Z,0.50
2023-01-11T04:02:39.823Z,0.50
2023-01-11T04:03:39.806Z,0.51
2023-01-11T04:04:39.871Z,0.51
2023-01-11T04:05:39.784Z,0.51
2023-01-11T04:06:39.889Z,0.52
2023-01-11T04:07:39.745Z,0.51
2023-01-11T04:08:39.726Z,0.52
2023-01-11T04:09:39.732Z,0.51
2023-01-11T04:10:39.698Z,0.51
2023-01-11T04:11:39.684Z,0.51
2023-01-11T04:12:39.676Z,0.51
2023-01-11T04:13:39.653Z,0.51
2023-01-11T04:14:39.639Z,0.51
2023-01-11T04:15:39.641Z,0.52
2023-01-11T04:16:39.711Z,0.52
2023-01-11T04:17:39.608Z,0.51
2023-01-11T04:18:39.593Z,0.51
2023-01-11T04:19:39.582Z,0.51
2023-01-11T04:20:39.566Z,0.51
2023-01-11T04:21:39.559Z,0.52
2023-01-11T04:22:39.572Z,0.51
2023-01-11T04:23:39.535Z,0.52
2023-01-11T04:24:39.514Z,0.51
2023-01-11T04:25:39.507Z,0.51
2023-01-11T04:26:39.497Z,0.52
2023-01-11T04:27:39.486Z,0.52
2023-01-11T04:28:39.467Z,0.51
2023-01-11T04:29:39.452Z,0.51
2023-01-11T04:30:39.439Z,0.52
2023-01-11T04:31:39.529Z,0.50
2023-01-11T04:32:39.406Z,0.51
2023-01-11T04:33:39.395Z,0.51
2023-01-11T04:34:39.373Z,0.51
2023-01-11T04:35:39.358Z,0.51
2023-01-11T04:36:39.351Z,0.50
2023-01-11T04:37:39.358Z,0.52
2023-01-11T04:38:39.335Z,0.51
2023-01-11T04:39:39.300Z,0.51
2023-01-11T04:40:39.301Z,0.51
2023-01-11T04:41:39.272Z,0.51
2023-01-11T04:42:39.259Z,0.51
2023-01-11T04:43:39.234Z,0.51
2023-01-11T04:44:39.222Z,0.51
2023-01-11T04:45:39.254Z,0.51
2023-01-11T04:46:39.201Z,0.52
2023-01-11T04:47:39.179Z,0.51
2023-01-11T04:49:39.148Z,0.51
2023-01-11T04:50:39.217Z,0.51
2023-01-11T04:51:39.125Z,0.51
2023-01-11T04:52:39.100Z,0.52
2023-01-11T04:53:39.112Z,0.51
2023-01-11T04:54:39.099Z,0.53
2023-01-11T04:55:39.053Z,0.51
2023-01-11T04:56:39.041Z,0.51
2023-01-11T04:57:39.031Z,0.52
2023-01-11T04:58:39.025Z,0.51
2023-01-11T04:59:39.008Z,0.51
2023-01-11T05:00:38.989Z,0.51
2023-01-11T05:01:39.094Z,0.51
2023-01-11T05:02:39.003Z,0.52
2023-01-11T05:03:38.947Z,0.51
2023-01-11T05:04:38.937Z,0.51
2023-01-11T05:05:38.931Z,0.52
2023-01-11T05:06:39.079Z,0.51
2023-01-11T05:07:38.978Z,0.52
2023-01-11T05:08:38.896Z,0.51
2023-01-11T05:09:38.871Z,0.51
2023-01-11T05:10:38.876Z,0.52
2023-01-11T05:11:38.851Z,0.52
2023-01-11T05:12:38.826Z,0.51
2023-01-11T05:13:38.810Z,0.51
2023-01-11T05:14:38.794Z,0.51
2023-01-11T05:15:38.794Z,0.51
2023-01-11T05:16:38.824Z,0.50
2023-01-11T05:17:38.759Z,0.51
2023-01-11T05:18:38.741Z,0.51
2023-01-11T05:19:38.722Z,0.51
2023-01-11T05:20:38.713Z,0.52
2023-01-11T05:21:38.698Z,0.51
2023-01-11T05:22:38.684Z,0.51
2023-01-11T05:24:38.667Z,0.51
2023-01-11T05:25:38.650Z,0.52
2023-01-11T05:26:38.660Z,0.51
2023-01-11T05:27:38.635Z,0.51
2023-01-11T05:28:38.606Z,0.52
2023-01-11T05:29:38.605Z,0.51
2023-01-11T05:30:38.588Z,0.52
2023-01-11T05:31:38.666Z,0.51
2023-01-11T05:32:38.557Z,0.52
2023-01-11T05:33:38.540Z,0.52
2023-01-11T05:34:38.527Z,0.51
2023-01-11T05:35:38.505Z,0.52
2023-01-11T05:36:38.491Z,0.52
2023-01-11T05:37:38.472Z,0.51
2023-01-11T05:38:38.468Z,0.51
2023-01-11T05:39:38.450Z,0.51
2023-01-11T05:40:38.421Z,0.51
2023-01-11T05:41:38.407Z,0.51
2023-01-11T05:42:38.418Z,0.51
2023-01-11T05:43:38.382Z,0.51
2023-01-11T05:44:38.439Z,0.52
2023-01-11T05:45:38.399Z,0.51
2023-01-11T05:46:38.340Z,0.51
2023-01-11T05:47:38.335Z,0.51
2023-01-11T05:48:38.321Z,0.51
2023-01-11T05:49:38.304Z,0.51
2023-01-11T05:50:38.298Z,0.52
2023-01-11T05:51:38.297Z,0.51
2023-01-11T05:52:38.281Z,0.51
2023-01-11T05:53:38.277Z,0.51
2023-01-11T05:54:38.257Z,0.51
2023-01-11T05:55:38.249Z,0.52
2023-01-11T05:56:38.235Z,0.51
2023-01-11T05:57:38.223Z,0.52
2023-01-11T05:58:38.236Z,0.51
2023-01-11T05:59:38.206Z,0.51
2023-01-11T06:00:38.193Z,0.51
2023-01-11T06:01:38.176Z,0.52
2023-01-11T06:02:38.253Z,0.52
2023-01-11T06:03:38.157Z,0.51
2023-01-11T06:04:38.151Z,0.51
2023-01-11T06:05:38.151Z,0.51
2023-01-11T06:06:38.195Z,0.51
2023-01-11T06:07:38.106Z,0.50
2023-01-11T06:08:38.127Z,0.51
2023-01-11T06:09:38.088Z,0.51
2023-01-11T06:10:38.072Z,0.51
2023-01-11T06:11:38.068Z,0.50
2023-01-11T06:12:38.047Z,0.50
2023-01-11T06:13:38.028Z,0.51
2023-01-11T06:14:38.370Z,0.50
2023-01-11T06:15:38.007Z,0.51
2023-01-11T06:16:38.088Z,0.51
2023-01-11T06:17:38.472Z,0.52
2023-01-11T06:18:37.977Z,0.51
2023-01-11T06:19:37.950Z,0.51
2023-01-11T06:20:37.926Z,0.51
2023-01-11T06:21:38.679Z,0.52
2023-01-11T06:22:37.904Z,0.52
2023-01-11T06:23:37.890Z,0.53
2023-01-11T06:24:37.937Z,0.53
2023-01-11T06:25:37.875Z,0.54
2023-01-11T06:26:37.842Z,0.55
2023-01-11T06:27:37.921Z,0.55
2023-01-11T06:28:37.840Z,0.56
2023-01-11T06:29:37.807Z,0.57
2023-01-11T06:30:37.887Z,0.62
2023-01-11T06:31:37.778Z,0.63
2023-01-11T06:32:37.766Z,0.61
2023-01-11T06:33:37.990Z,0.63
2023-01-11T06:34:37.778Z,0.62
2023-01-11T06:35:37.982Z,0.62
2023-01-11T06:36:37.722Z,0.66
2023-01-11T06:37:37.987Z,0.69
2023-01-11T06:38:37.748Z,0.74
2023-01-11T06:39:37.668Z,0.71
2023-01-11T06:40:37.997Z,0.75
2023-01-11T06:41:37.631Z,0.75
2023-01-11T06:42:37.628Z,0.77
2023-01-11T06:43:37.592Z,0.77
2023-01-11T06:44:37.745Z,0.79
2023-01-11T06:45:38.009Z,0.80
2023-01-11T06:46:37.598Z,0.80
2023-01-11T06:47:37.901Z,0.82
2023-01-11T06:48:38.580Z,0.84
2023-01-11T06:49:38.025Z,0.85
2023-01-11T06:50:37.942Z,0.85
2023-01-11T06:51:37.938Z,0.78
2023-01-11T06:52:38.716Z,0.72
2023-01-11T06:53:37.522Z,0.70
2023-01-11T06:55:37.492Z,0.70
2023-01-11T06:59:37.804Z,0.59
2023-01-11T07:01:37.624Z,0.55
2023-01-11T07:04:37.521Z,0.51
2023-01-11T07:05:37.558Z,0.50
2023-01-11T07:06:37.679Z,0.50
2023-01-11T07:07:37.491Z,0.51
2023-01-11T07:12:37.500Z,0.50
2023-01-11T07:13:37.479Z,0.50
2023-01-11T07:14:37.583Z,0.51
2023-01-11T07:15:37.576Z,0.50
2023-01-11T07:16:37.999Z,0.50
2023-01-11T07:17:37.543Z,0.50
2023-01-11T07:18:37.648Z,0.51
2023-01-11T07:19:37.560Z,0.51
2023-01-11T07:20:37.573Z,0.51
2023-01-11T07:21:37.994Z,0.51
2023-01-11T07:22:38.161Z,0.50
2023-01-11T07:23:37.605Z,0.50
2023-01-11T07:24:38.002Z,0.50
2023-01-11T07:25:37.642Z,0.50
2023-01-11T07:26:37.651Z,0.50
2023-01-11T07:27:37.667Z,0.50
2023-01-11T07:28:38.000Z,0.51
2023-01-11T07:29:37.715Z,0.51
2023-01-11T07:30:55.464Z,0.51
2023-01-11T07:31:37.802Z,0.51
2023-01-11T07:32:37.769Z,0.51
2023-01-11T07:33:38.008Z,0.50
2023-01-11T07:34:37.827Z,0.49
2023-01-11T07:35:37.806Z,0.49
2023-01-11T07:36:37.827Z,0.50
2023-01-11T07:37:37.862Z,0.50
2023-01-11T07:39:43.281Z,0.52
2023-01-11T07:40:38.012Z,0.52
2023-01-11T07:41:39.200Z,0.51
2023-01-11T07:42:37.944Z,0.51
2023-01-11T07:43:37.971Z,0.49
2023-01-11T07:44:38.074Z,0.49
2023-01-11T07:45:45.480Z,0.50
2023-01-11T07:46:38.185Z,0.50
2023-01-11T07:47:38.052Z,0.50
2023-01-11T10:06:38.509Z,1.09
2023-01-11T10:18:28.853Z,1.05
2023-01-11T10:18:38.493Z,1.06
2023-01-11T10:18:42.793Z,1.06
2023-01-11T10:19:04.209Z,1.05
2023-01-11T10:20:38.763Z,1.06
2023-01-11T10:34:39.079Z,0.93
2023-01-11T10:39:39.130Z,1.22
2023-01-11T11:34:38.193Z,5.06
2023-01-11T11:35:38.045Z,5.18
2023-01-11T11:37:37.977Z,5.24
2023-01-11T11:38:37.934Z,5.39
2023-01-11T11:39:38.088Z,5.55
2023-01-11T11:40:37.906Z,5.58
2023-01-11T11:41:37.832Z,5.68
2023-01-11T11:42:37.791Z,5.79
2023-01-11T11:43:37.777Z,5.84
2023-01-11T11:44:37.720Z,5.91
2023-01-11T11:45:37.807Z,6.04
2023-01-11T11:46:37.724Z,6.21
2023-01-11T11:47:37.639Z,6.17
2023-01-11T11:48:37.597Z,6.27
2023-01-11T11:49:37.580Z,6.18
2023-01-11T11:50:44.746Z,6.17
2023-01-11T11:51:37.499Z,6.20
2023-01-11T11:52:37.464Z,6.24
2023-01-11T11:59:37.585Z,6.32
2023-01-11T13:09:35.363Z,2.04
2023-01-11T13:13:35.312Z,1.80
2023-01-11T13:14:35.305Z,1.75
2023-01-11T13:15:35.282Z,1.70
2023-01-11T13:16:35.409Z,1.72
2023-01-11T13:17:35.621Z,1.61
2023-01-11T13:19:35.236Z,1.59
2023-01-11T13:20:48.711Z,1.79
2023-01-11T13:21:35.237Z,1.79
2023-01-11T13:22:35.191Z,1.81
2023-01-11T13:23:35.621Z,1.67
2023-01-11T13:24:35.200Z,1.80
2023-01-11T13:25:35.132Z,1.60
2023-01-11T13:26:35.231Z,1.57
2023-01-11T13:28:35.076Z,1.77
2023-01-11T13:29:35.057Z,1.68
2023-01-11T13:31:35.022Z,1.69
2023-01-11T13:32:37.263Z,1.70
2023-01-11T13:33:34.985Z,1.76
2023-01-11T13:34:34.975Z,1.85
2023-01-11T13:35:35.175Z,2.00
2023-01-11T13:36:34.915Z,2.07
2023-01-11T13:38:34.933Z,2.20
2023-01-11T13:39:34.821Z,2.29
2023-01-11T13:40:34.795Z,2.32
2023-01-11T13:41:34.768Z,2.39
2023-01-11T13:42:34.806Z,2.50
2023-01-11T13:43:34.698Z,2.57
2023-01-11T13:44:37.120Z,2.61
2023-01-11T13:45:34.630Z,2.62
2023-01-11T13:46:34.685Z,2.65
2023-01-11T13:47:34.571Z,2.67
2023-01-11T13:48:34.556Z,2.77
2023-01-11T13:49:34.500Z,2.91
2023-01-11T13:50:34.471Z,3.00
2023-01-11T13:51:34.652Z,3.11
2023-01-11T13:52:34.393Z,3.20
2023-01-11T13:53:34.368Z,3.30
2023-01-11T13:54:34.333Z,3.15
2023-01-11T13:55:34.294Z,3.37
2023-01-11T13:56:34.651Z,3.41
2023-01-11T13:57:34.232Z,3.35
2023-01-11T13:58:36.797Z,3.36
2023-01-11T13:59:34.154Z,3.37
2023-01-11T14:00:34.123Z,3.39
2023-01-11T14:01:34.212Z,3.47
2023-01-11T14:02:35.596Z,3.55
2023-01-11T14:03:34.109Z,3.38
2023-01-11T14:04:34.003Z,3.42
2023-01-11T14:05:33.967Z,3.50
2023-01-11T14:06:33.943Z,3.51
2023-01-11T14:07:33.908Z,3.78
2023-01-11T14:08:35.701Z,3.65
2023-01-11T14:09:33.844Z,3.66
2023-01-11T14:10:33.817Z,3.67
2023-01-11T14:11:33.796Z,3.70
2023-01-11T14:12:33.787Z,3.81
2023-01-11T14:13:33.733Z,3.80
2023-01-11T14:14:35.396Z,3.84
2023-01-11T14:15:33.777Z,3.84
2023-01-11T14:16:34.202Z,3.86
2023-01-11T14:17:33.626Z,3.87
2023-01-11T14:18:33.593Z,3.88
2023-01-11T14:19:33.572Z,3.85
2023-01-11T14:20:33.614Z,3.87
2023-01-11T14:21:33.531Z,3.83
2023-01-11T14:22:33.521Z,3.87
2023-01-11T14:23:33.513Z,3.83
2023-01-11T14:24:33.465Z,3.72
2023-01-11T14:25:33.428Z,3.72
2023-01-11T14:26:34.146Z,3.67
2023-01-11T14:27:33.394Z,3.69
2023-01-11T14:28:33.373Z,3.68
2023-01-11T14:29:33.656Z,3.64
2023-01-11T14:30:33.368Z,3.61
2023-01-11T14:31:33.392Z,3.66
2023-01-11T14:32:33.271Z,3.60
2023-01-11T14:33:33.263Z,3.51
2023-01-11T14:34:33.219Z,3.46
2023-01-11T14:35:33.222Z,3.43
2023-01-11T14:36:33.171Z,3.38
2023-01-11T14:37:33.153Z,3.41
2023-01-11T14:38:33.173Z,3.32
2023-01-11T14:39:33.119Z,3.34
2023-01-11T14:40:33.076Z,3.26
2023-01-11T14:41:33.048Z,3.22
2023-01-11T14:42:35.520Z,3.22
2023-01-11T14:43:33.041Z,3.22
2023-01-11T14:44:32.995Z,3.22
2023-01-11T14:45:32.949Z,3.16
2023-01-11T14:46:33.118Z,3.10
2023-01-11T14:47:32.912Z,3.14
2023-01-11T14:48:33.158Z,3.06
2023-01-11T14:49:32.874Z,3.09
2023-01-11T14:50:32.852Z,3.09
2023-01-11T14:51:33.883Z,3.03
2023-01-11T14:52:39.655Z,3.09
2023-01-11T14:53:32.832Z,3.09
2023-01-11T14:54:32.824Z,3.10
2023-01-11T14:55:32.758Z,3.02
2023-01-11T14:56:32.728Z,3.00
2023-01-11T14:57:32.707Z,2.96
2023-01-11T14:58:32.714Z,2.98
2023-01-11T14:59:32.662Z,2.97
2023-01-11T15:00:32.644Z,2.89
2023-01-11T15:01:32.752Z,2.88
2023-01-11T15:02:32.818Z,2.87
2023-01-11T15:03:32.577Z,2.85
2023-01-11T15:04:32.727Z,2.87
2023-01-11T15:05:32.533Z,2.87
2023-01-11T15:06:32.509Z,3.01
2023-01-11T15:07:32.667Z,3.74
2023-01-11T15:08:32.482Z,3.15
2023-01-11T15:09:32.450Z,3.49
2023-01-11T15:10:32.439Z,3.86
2023-01-11T15:11:32.421Z,3.29
2023-01-11T15:12:32.669Z,3.07
2023-01-11T15:13:33.818Z,3.16
2023-01-11T15:14:32.365Z,3.28
2023-01-11T15:15:32.340Z,3.30
2023-01-11T15:16:32.406Z,3.35
2023-01-11T15:17:32.292Z,3.36
2023-01-11T15:18:32.381Z,3.38
2023-01-11T15:19:33.835Z,3.47
2023-01-11T15:20:32.220Z,3.41
2023-01-11T15:21:32.209Z,3.42
2023-01-11T15:22:32.187Z,3.38
2023-01-11T15:23:32.162Z,3.29
2023-01-11T15:24:32.202Z,3.31
2023-01-11T15:25:33.786Z,3.28
2023-01-11T15:26:32.123Z,3.28
2023-01-11T15:27:32.100Z,3.28
2023-01-11T15:28:32.068Z,3.28
2023-01-11T15:29:32.052Z,3.27
2023-01-11T15:30:32.038Z,3.22
2023-01-11T15:31:34.080Z,3.30
2023-01-11T15:32:32.025Z,3.30
2023-01-11T15:33:31.991Z,3.30
2023-01-11T15:34:31.990Z,3.15
2023-01-11T15:35:31.946Z,3.19
2023-01-11T15:36:31.917Z,3.18
2023-01-11T15:37:31.902Z,3.22
2023-01-11T15:38:31.879Z,3.16
2023-01-11T15:39:31.851Z,3.20
2023-01-11T15:40:31.836Z,3.10
2023-01-11T15:41:31.818Z,3.17
2023-01-11T15:42:31.787Z,3.07
2023-01-11T15:43:32.183Z,3.08
2023-01-11T15:44:31.753Z,3.09
2023-01-11T15:45:31.752Z,3.03
2023-01-11T15:46:31.787Z,3.03
2023-01-11T15:47:31.690Z,2.96
2023-01-11T15:48:32.185Z,3.03
2023-01-11T15:49:31.655Z,2.98
2023-01-11T15:50:31.669Z,2.98
2023-01-11T15:51:31.625Z,3.02
2023-01-11T15:52:31.621Z,2.95
2023-01-11T15:53:31.575Z,2.93
2023-01-11T15:54:31.571Z,2.91
2023-01-11T15:55:31.545Z,2.91
2023-01-11T15:56:31.524Z,2.89
2023-01-11T15:57:31.511Z,2.82
2023-01-11T15:58:31.487Z,2.78
2023-01-11T15:59:31.467Z,2.84
2023-01-11T16:00:31.522Z,2.84
2023-01-11T16:01:31.425Z,2.76
2023-01-11T16:02:31.401Z,2.80
2023-01-11T16:03:31.381Z,2.81
2023-01-11T16:04:31.414Z,2.75
2023-01-11T16:05:31.374Z,2.73
2023-01-11T16:06:31.339Z,2.74
2023-01-11T16:07:31.306Z,2.70
2023-01-11T16:09:33.081Z,2.74
2023-01-11T16:10:31.250Z,2.74
2023-01-11T16:11:31.229Z,2.75
2023-01-11T16:12:31.190Z,2.70
2023-01-11T16:13:31.197Z,2.66
2023-01-11T16:14:31.185Z,2.65
2023-01-11T16:15:31.167Z,2.60
2023-01-11T16:16:31.162Z,2.64
2023-01-11T16:17:31.106Z,2.61
2023-01-11T16:18:31.092Z,2.57
2023-01-11T16:19:31.069Z,2.55
2023-01-11T16:20:31.041Z,2.57
2023-01-11T16:21:31.038Z,2.54
2023-01-11T16:22:31.028Z,2.53
2023-01-11T16:23:30.990Z,2.53
2023-01-11T16:24:31.030Z,2.48
2023-01-11T16:25:30.970Z,2.49
2023-01-11T16:26:30.956Z,2.48
2023-01-11T16:27:30.926Z,2.44
2023-01-11T16:28:30.915Z,2.44
2023-01-11T16:29:30.902Z,2.48
2023-01-11T16:30:30.865Z,2.46
2023-01-11T16:31:30.873Z,2.44
2023-01-11T16:32:30.828Z,2.44
2023-01-11T16:33:30.823Z,2.41
2023-01-11T16:34:30.793Z,2.41
2023-01-11T16:35:30.774Z,2.41
2023-01-11T16:36:31.205Z,2.38
2023-01-11T16:37:30.748Z,2.35
2023-01-11T16:38:30.740Z,2.40
2023-01-11T16:39:30.698Z,2.36
2023-01-11T16:40:30.684Z,2.35
2023-01-11T16:41:30.665Z,2.34
2023-01-11T16:42:30.650Z,2.32
2023-01-11T16:43:30.627Z,2.34
2023-01-11T16:44:30.610Z,2.29
2023-01-11T16:45:30.623Z,2.27
2023-01-11T16:46:30.588Z,2.30
2023-01-11T16:47:30.564Z,2.27
2023-01-11T16:48:30.550Z,2.24
2023-01-11T16:49:30.528Z,2.29
2023-01-11T16:50:30.506Z,2.20
2023-01-11T16:51:30.486Z,2.22
2023-01-11T16:52:30.470Z,2.25
2023-01-11T16:53:30.558Z,2.19
2023-01-11T16:54:30.457Z,2.21
2023-01-11T16:55:30.423Z,2.18
2023-01-11T16:56:30.396Z,2.21
2023-01-11T16:57:30.378Z,2.20
2023-01-11T16:58:30.373Z,2.19
2023-01-11T16:59:30.352Z,2.12
2023-01-11T17:00:30.334Z,2.15
2023-01-11T17:01:30.360Z,2.13
2023-01-11T17:02:30.403Z,2.13
2023-01-11T17:03:30.317Z,2.11
2023-01-11T17:04:30.296Z,2.10
2023-01-11T17:05:30.263Z,2.07
2023-01-11T17:06:30.263Z,2.10
2023-01-11T17:07:30.251Z,2.07
2023-01-11T17:08:30.261Z,2.05
2023-01-11T17:09:30.219Z,2.08
2023-01-11T17:10:30.218Z,2.07
2023-01-11T17:11:30.192Z,2.01
2023-01-11T17:12:30.157Z,2.01
2023-01-11T17:13:30.146Z,2.02
2023-01-11T17:14:30.120Z,2.02
2023-01-11T17:15:30.111Z,2.02
2023-01-11T17:16:30.302Z,1.97
2023-01-11T17:17:30.222Z,2.02
2023-01-11T17:18:30.060Z,2.02
2023-01-11T17:19:30.037Z,1.97
2023-01-11T17:20:30.114Z,1.96
2023-01-11T17:21:30.007Z,1.95
2023-01-11T17:22:29.990Z,1.94
2023-01-11T17:23:29.976Z,1.92
2023-01-11T17:24:29.955Z,1.93
2023-01-11T17:25:41.091Z,1.92
2023-01-11T17:26:30.008Z,1.92
2023-01-11T17:27:29.950Z,1.93
2023-01-11T17:28:29.902Z,1.92
2023-01-11T17:29:29.900Z,1.92
2023-01-11T17:30:29.874Z,1.91
2023-01-11T17:31:30.044Z,1.89
2023-01-11T17:32:29.846Z,1.88
2023-01-11T17:33:29.835Z,1.87
2023-01-11T17:34:29.810Z,1.88
2023-01-11T17:35:29.805Z,1.86
2023-01-11T17:36:29.807Z,1.85
2023-01-11T17:37:29.764Z,1.86
2023-01-11T17:38:29.756Z,1.85
2023-01-11T17:39:29.737Z,1.81
2023-01-11T17:40:29.722Z,1.85
2023-01-11T17:41:29.780Z,1.82
2023-01-11T17:42:29.789Z,1.79
2023-01-11T17:43:29.679Z,1.79
2023-01-11T17:44:29.669Z,1.80
2023-01-11T17:45:29.691Z,1.80
2023-01-11T17:46:29.636Z,1.75
2023-01-11T17:47:29.620Z,1.76
2023-01-11T17:48:29.598Z,1.76
2023-01-11T17:49:29.584Z,1.74
2023-01-11T17:50:29.569Z,1.73
2023-01-11T17:51:29.556Z,1.74
2023-01-11T17:52:29.611Z,1.76
2023-01-11T17:53:29.540Z,1.72
2023-01-11T17:54:29.512Z,1.73
2023-01-11T17:55:29.499Z,1.69
2023-01-11T17:56:29.482Z,1.73
2023-01-11T17:57:29.520Z,1.71
2023-01-11T17:58:29.482Z,1.70
2023-01-11T17:59:29.434Z,1.71
2023-01-11T18:00:29.422Z,1.71
2023-01-11T18:01:29.432Z,1.65
2023-01-11T18:02:29.489Z,1.69
2023-01-11T18:03:29.377Z,1.66
2023-01-11T18:04:29.353Z,1.67
2023-01-11T18:05:29.344Z,1.65
2023-01-11T18:06:29.321Z,1.67
2023-01-11T18:07:29.307Z,1.66
2023-01-11T18:08:29.300Z,1.65
2023-01-11T18:09:29.453Z,1.61
2023-01-11T18:10:29.268Z,1.64
2023-01-11T18:11:29.268Z,1.61
2023-01-11T18:12:29.263Z,1.64
2023-01-11T18:13:29.253Z,1.61
2023-01-11T18:14:29.242Z,1.63
2023-01-11T18:15:29.200Z,1.60
2023-01-11T18:16:29.263Z,1.61
2023-01-11T18:17:29.177Z,1.57
2023-01-11T18:18:29.172Z,1.59
2023-01-11T18:19:29.157Z,1.59
2023-01-11T18:20:29.140Z,1.59
2023-01-11T18:21:29.130Z,1.57
2023-01-11T18:22:29.119Z,1.60
2023-01-11T18:23:29.096Z,1.56
2023-01-11T18:24:29.083Z,1.56
2023-01-11T18:25:29.069Z,1.54
2023-01-11T18:26:29.045Z,1.52
2023-01-11T18:27:29.031Z,1.53
2023-01-11T18:28:29.027Z,1.55
2023-01-11T18:29:29.002Z,1.51
2023-01-11T18:30:29.135Z,1.50
2023-01-11T18:31:29.032Z,1.52
2023-01-11T18:32:28.953Z,1.52
2023-01-11T18:33:28.929Z,1.50
2023-01-11T18:34:28.917Z,1.51
2023-01-11T18:35:28.902Z,1.51
2023-01-11T18:36:28.882Z,1.45
2023-01-11T18:37:28.870Z,1.50
2023-01-11T18:38:28.864Z,1.49
2023-01-11T18:39:28.837Z,1.46
2023-01-11T18:40:28.821Z,1.47
2023-01-11T18:41:28.818Z,1.47
2023-01-11T18:42:28.793Z,1.47
2023-01-11T18:43:28.778Z,1.46
2023-01-11T18:44:28.767Z,1.47
2023-01-11T18:45:28.750Z,1.46
2023-01-11T18:46:28.860Z,1.46
2023-01-11T18:47:28.731Z,1.45
2023-01-11T18:48:28.803Z,1.44
2023-01-11T18:49:28.715Z,1.42
2023-01-11T18:50:28.690Z,1.42
2023-01-11T18:51:28.677Z,1.42
2023-01-11T18:52:28.668Z,1.43
2023-01-11T18:53:28.658Z,1.43
2023-01-11T18:54:28.674Z,1.41
2023-01-11T18:55:28.628Z,1.42
2023-01-11T18:56:28.643Z,1.41
2023-01-11T18:57:28.612Z,1.41
2023-01-11T18:58:28.593Z,1.38
2023-01-11T18:59:28.589Z,1.40
2023-01-11T19:00:28.582Z,1.40
2023-01-11T19:01:28.790Z,1.40
2023-01-11T19:02:28.645Z,1.39
2023-01-11T19:03:28.553Z,1.39
2023-01-11T19:04:28.535Z,1.37
2023-01-11T19:05:28.527Z,1.37
2023-01-11T19:06:28.517Z,1.37
2023-01-11T19:07:28.571Z,1.34
2023-01-11T19:08:30.084Z,1.36
2023-01-11T19:09:28.542Z,1.39
2023-01-11T19:10:28.509Z,1.40
2023-01-11T19:11:28.484Z,1.37
2023-01-11T19:12:28.480Z,1.36
2023-01-11T19:13:28.467Z,1.35
2023-01-11T19:14:28.472Z,1.34
2023-01-11T19:15:28.498Z,1.35
2023-01-11T19:16:28.462Z,1.33
2023-01-11T19:17:28.484Z,1.33
2023-01-11T19:18:29.326Z,1.33
2023-01-11T19:19:28.432Z,1.35
2023-01-11T19:20:28.422Z,1.32
2023-01-11T19:21:28.403Z,1.31
2023-01-11T19:22:28.408Z,1.29
2023-01-11T19:23:28.403Z,1.31
2023-01-11T19:24:28.369Z,1.33
2023-01-11T19:25:28.363Z,1.30
2023-01-11T19:26:28.341Z,1.30
2023-01-11T19:27:28.323Z,1.28
2023-01-11T19:28:28.321Z,1.30
2023-01-11T19:29:28.304Z,1.30
2023-01-11T19:30:28.306Z,1.28
2023-01-11T19:31:28.272Z,1.28
2023-01-11T19:32:28.280Z,1.25
2023-01-11T19:33:28.251Z,1.28
2023-01-11T19:34:28.401Z,1.27
2023-01-11T19:35:28.254Z,1.24
2023-01-11T19:36:28.214Z,1.26
2023-01-11T19:37:28.238Z,1.26
2023-01-11T19:38:28.191Z,1.26
2023-01-11T19:39:28.181Z,1.25
2023-01-11T19:40:28.163Z,1.24
2023-01-11T19:41:28.155Z,1.24
2023-01-11T19:42:28.175Z,1.23
2023-01-11T19:43:28.126Z,1.22
2023-01-11T19:44:28.107Z,1.25
2023-01-11T19:45:28.129Z,1.25
2023-01-11T19:46:31.868Z,1.20
2023-01-11T19:47:28.131Z,1.20
2023-01-11T19:48:28.053Z,1.20
2023-01-11T19:49:28.026Z,1.21
2023-01-11T19:50:28.085Z,1.22
2023-01-11T19:51:28.246Z,1.22
2023-01-11T19:52:28.006Z,1.22
2023-01-11T19:53:27.968Z,1.23
2023-01-11T19:54:27.956Z,1.22
2023-01-11T19:55:27.954Z,1.20
2023-01-11T19:56:27.933Z,1.22
2023-01-11T19:57:27.921Z,1.19
2023-01-11T19:58:27.910Z,1.19
2023-01-11T19:59:27.891Z,1.20
2023-01-11T20:00:27.884Z,1.19
2023-01-11T20:01:27.897Z,1.20
2023-01-11T20:02:27.897Z,1.19
2023-01-11T20:03:27.905Z,1.18
2023-01-11T20:04:27.848Z,1.17
2023-01-11T20:05:27.827Z,1.18
2023-01-11T20:06:27.832Z,1.17
2023-01-11T20:07:27.794Z,1.16
2023-01-11T20:08:27.812Z,1.16
2023-01-11T20:09:27.784Z,1.18
2023-01-11T20:10:27.758Z,1.16
2023-01-11T20:11:27.748Z,1.15
2023-01-11T20:12:27.731Z,1.15
2023-01-11T20:13:27.721Z,1.15
2023-01-11T20:14:27.721Z,1.13
2023-01-11T20:15:27.748Z,1.14
2023-01-11T20:16:27.714Z,1.13
2023-01-11T20:17:27.661Z,1.13
2023-01-11T20:18:27.645Z,1.13
2023-01-11T20:19:27.646Z,1.12
2023-01-11T20:20:27.611Z,1.13
2023-01-11T20:21:27.600Z,1.14
2023-01-11T20:22:27.616Z,1.13
2023-01-11T20:23:27.571Z,1.13
2023-01-11T20:24:27.624Z,1.12
2023-01-11T20:25:27.545Z,1.11
2023-01-11T20:26:27.518Z,1.11
2023-01-11T20:27:27.508Z,1.12
2023-01-11T20:28:27.483Z,1.11
2023-01-11T20:29:27.473Z,1.11
2023-01-11T20:30:27.457Z,1.10
2023-01-11T20:31:27.509Z,1.11
2023-01-11T20:32:40.764Z,1.09
2023-01-11T20:33:27.417Z,1.10
2023-01-11T20:34:27.400Z,1.10